Time;durP1;ratioP1;P1;durP2;ratioP2;P2;SDS_P1;SDS_P2;PMS_P1;PMS_P2;Temp;Humidity;BMP_temperature;BMP_pressure;BME280_temperature;BME280_humidity;BME280_pressure;Samples;Min_cycle;Max_cycle;Signal;HPM_P1;HPM_P2
2022/01/21 00:00:49;;;;;;;10.65;5.37;;;;;;;-2.42;100.00;98475.30;2070213;86;21146;-84
2022/01/21 00:03:51;;;;;;;5.15;4.15;;;;;;;-2.39;100.00;98484.87;2075130;84;21547;-84
2022/01/21 00:06:52;;;;;;;8.80;4.65;;;;;;;-2.39;100.00;98475.91;2071466;86;21032;-85
2022/01/21 00:09:53;;;;;;;5.03;4.25;;;;;;;-2.36;100.00;98469.77;2109575;82;21506;-83
2022/01/21 00:12:55;;;;;;;7.37;4.37;;;;;;;-2.34;100.00;98475.14;2092766;84;20977;-84
2022/01/21 00:15:56;;;;;;;9.53;5.00;;;;;;;-2.32;100.00;98476.31;2115897;84;21098;-84
2022/01/21 00:19:00;;;;;;;8.25;3.77;;;;;;;-2.32;100.00;98465.59;2116815;83;21071;-84
2022/01/21 00:31:59;;;;;;;6.78;4.30;;;;;;;-2.24;100.00;98483.03;1953642;91;21224;-83
2022/01/21 00:34:59;;;;;;;7.28;4.50;;;;;;;-2.22;100.00;98497.84;1953745;91;21516;-84
2022/01/21 00:38:00;;;;;;;7.58;4.42;;;;;;;-2.19;100.00;98491.70;1953798;91;21151;-84
2022/01/21 00:41:04;;;;;;;5.95;3.75;;;;;;;-2.23;100.00;98498.77;1999735;88;21028;-84
2022/01/21 00:44:04;;;;;;;5.72;4.30;;;;;;;-2.27;100.00;98495.25;2016691;88;21118;-84
2022/01/21 00:47:04;;;;;;;5.80;4.45;;;;;;;-2.35;100.00;98505.56;2016768;88;21176;-83
2022/01/21 00:50:05;;;;;;;9.78;4.58;;;;;;;-2.37;100.00;98497.63;2016575;88;20997;-84
2022/01/21 00:53:06;;;;;;;7.50;4.37;;;;;;;-2.39;100.00;98512.27;2022933;85;21080;-84
2022/01/21 00:56:07;;;;;;;8.50;4.00;;;;;;;-2.40;100.00;98523.45;2093454;84;21521;-83
2022/01/21 00:59:08;;;;;;;7.60;3.72;;;;;;;-2.45;100.00;98518.64;2084544;84;20995;-84
2022/01/21 01:02:08;;;;;;;5.37;4.35;;;;;;;-2.54;100.00;98509.00;2102365;85;21054;-84
2022/01/21 01:05:09;;;;;;;6.03;4.05;;;;;;;-2.54;100.00;98509.00;2115853;83;21560;-85
2022/01/21 01:08:10;;;;;;;9.60;4.78;;;;;;;-2.54;100.00;98528.23;2109548;84;21014;-85
2022/01/21 01:20:50;;;;;;;11.53;5.55;;;;;;;-2.67;100.00;98524.82;2102083;84;21028;-84
2022/01/21 01:30:11;;;;;;;6.28;4.55;;;;;;;-2.66;100.00;98540.55;2308070;77;21083;-86
2022/01/21 01:33:14;;;;;;;10.48;5.00;;;;;;;-2.63;100.00;98523.71;2283495;78;21037;-86
2022/01/21 01:36:14;;;;;;;6.40;3.70;;;;;;;-2.60;100.00;98551.70;2283592;77;21005;-87
2022/01/21 01:39:28;;;;;;;6.03;3.98;;;;;;;-2.61;100.00;98548.31;2283243;78;20953;-86
2022/01/21 01:52:00;;;;;;;5.35;4.33;;;;;;;-2.68;100.00;98548.35;2282155;78;21068;-85
2022/01/21 01:55:00;;;;;;;4.78;4.20;;;;;;;-2.71;100.00;98542.16;2281093;78;20944;-85
2022/01/21 01:58:01;;;;;;;7.17;4.62;;;;;;;-2.74;100.00;98532.11;2283140;76;20988;-85
2022/01/21 02:01:02;;;;;;;7.60;4.03;;;;;;;-2.80;100.00;98533.79;2293968;76;20964;-85
2022/01/21 02:04:03;;;;;;;6.15;4.37;;;;;;;-2.86;100.00;98531.16;2318342;75;21048;-86
2022/01/21 02:07:04;;;;;;;7.20;4.47;;;;;;;-2.91;100.00;98541.36;2310604;77;21067;-84
2022/01/21 02:10:05;;;;;;;7.90;4.33;;;;;;;-2.94;100.00;98550.50;2299934;77;20949;-85
2022/01/21 02:13:18;;;;;;;6.55;3.90;;;;;;;-2.96;100.00;98544.66;2268700;78;20882;-86
2022/01/21 02:16:29;;;;;;;6.75;4.35;;;;;;;-2.98;100.00;98549.07;2266168;78;21068;-86
2022/01/21 02:22:21;;;;;;;;;;;;;;;-3.02;100.00;98559.95;2162576;82;21017;-86
2022/01/21 02:25:22;;;;;;;4.33;3.30;;;;;;;-3.03;100.00;98557.03;2116485;84;20188;-84
2022/01/21 02:28:23;;;;;;;4.45;3.90;;;;;;;-3.06;100.00;98572.61;2118290;83;20997;-85
2022/01/21 02:31:24;;;;;;;6.87;4.92;;;;;;;-3.10;100.00;98565.23;2116623;84;20975;-85
2022/01/21 02:34:25;;;;;;;5.37;3.98;;;;;;;-3.11;100.00;98577.19;2117849;83;21526;-85
2022/01/21 02:37:26;;;;;;;6.47;3.80;;;;;;;-3.15;100.00;98568.89;2152565;83;20959;-84
2022/01/21 02:40:27;;;;;;;8.15;3.90;;;;;;;-3.15;100.00;98570.63;2152166;81;21600;-83
2022/01/21 02:43:28;;;;;;;6.05;3.58;;;;;;;-3.20;100.00;98578.63;2152652;83;21625;-83
2022/01/21 02:46:29;;;;;;;7.50;4.28;;;;;;;-3.22;100.00;98583.00;2118396;83;20982;-84
2022/01/21 02:49:30;;;;;;;9.15;3.90;;;;;;;-3.26;100.00;98587.96;2149726;83;21566;-84
2022/01/21 02:52:40;;;;;;;8.80;3.67;;;;;;;-3.30;100.00;98589.52;2103993;84;21094;-84
2022/01/21 02:55:33;;;;;;;8.38;3.92;;;;;;;-3.33;100.00;98589.25;2120276;83;21050;-84
2022/01/21 02:58:34;;;;;;;3.55;3.25;;;;;;;-3.32;100.00;98596.48;2141698;82;21075;-82
2022/01/21 03:01:35;;;;;;;4.90;3.00;;;;;;;-3.32;100.00;98596.02;2212755;80;21016;-84
2022/01/21 03:04:58;;;;;;;4.15;3.75;;;;;;;-3.32;100.00;98597.30;2263359;77;21050;-83
2022/01/21 03:07:49;;;;;;;7.95;4.12;;;;;;;-3.32;100.00;98598.58;2261479;79;21604;-82
2022/01/21 03:10:50;;;;;;;3.02;2.80;;;;;;;-3.32;100.00;98592.63;2264367;79;20958;-83
2022/01/21 03:13:51;;;;;;;2.85;2.62;;;;;;;-3.34;100.00;98608.09;2264175;79;21037;-84
2022/01/21 03:16:52;;;;;;;3.70;3.20;;;;;;;-3.40;100.00;98588.45;2265699;77;20919;-84
2022/01/21 03:19:52;;;;;;;5.37;2.70;;;;;;;-3.46;100.00;98595.61;2293885;77;21070;-83
2022/01/21 03:22:53;;;;;;;3.08;2.87;;;;;;;-3.47;100.00;98607.22;2262293;78;20919;-84
2022/01/21 03:25:54;;;;;;;3.33;3.05;;;;;;;-3.46;100.00;98610.14;2262247;78;21098;-84
2022/01/21 03:28:55;;;;;;;5.78;3.25;;;;;;;-3.44;100.00;98604.47;2263854;77;21485;-84
2022/01/21 03:31:55;;;;;;;6.28;2.72;;;;;;;-3.42;100.00;98598.78;2262344;78;20978;-83
2022/01/21 03:34:56;;;;;;;5.97;3.08;;;;;;;-3.40;100.00;98605.09;2275320;78;21432;-83
2022/01/21 03:37:57;;;;;;;4.42;2.90;;;;;;;-3.40;100.00;98600.78;2246544;78;20972;-83
2022/01/21 03:40:57;;;;;;;4.00;3.00;;;;;;;-3.36;100.00;98607.38;2239631;78;20982;-83
2022/01/21 03:43:58;;;;;;;4.58;2.75;;;;;;;-3.34;100.00;98614.96;2255390;78;21039;-82
2022/01/21 03:46:59;;;;;;;8.05;3.20;;;;;;;-3.33;100.00;98607.18;2240150;78;21404;-83
2022/01/21 03:50:18;;;;;;;4.42;3.10;;;;;;;-3.31;100.00;98608.36;2238293;78;21325;-83
2022/01/21 03:53:02;;;;;;;2.92;2.08;;;;;;;-3.29;100.00;98595.84;2233306;80;21091;-83
2022/01/21 03:56:03;;;;;;;5.20;3.25;;;;;;;-3.28;100.00;98608.19;2237748;80;20976;-82
2022/01/21 03:59:04;;;;;;;4.05;2.80;;;;;;;-3.27;100.00;98592.72;2238711;78;21070;-83
2022/01/21 04:02:06;;;;;;;3.50;3.08;;;;;;;-3.27;100.00;98578.64;2238783;78;21066;-84
2022/01/21 04:05:06;;;;;;;5.40;2.87;;;;;;;-3.27;100.00;98589.34;2236229;79;21089;-84
2022/01/21 04:08:07;;;;;;;5.58;3.30;;;;;;;-3.26;100.00;98594.36;2252894;79;21498;-84
2022/01/21 04:11:08;;;;;;;4.92;3.20;;;;;;;-3.29;100.00;98593.28;2253013;79;21037;-83
2022/01/21 04:14:09;;;;;;;3.77;2.80;;;;;;;-3.28;100.00;98601.33;2253035;79;21399;-84
2022/01/21 04:17:10;;;;;;;6.10;3.47;;;;;;;-3.26;100.00;98601.22;2228826;78;20925;-85
2022/01/21 04:20:10;;;;;;;6.05;2.75;;;;;;;-3.26;100.00;98596.92;2269927;78;21012;-84
2022/01/21 04:23:11;;;;;;;5.58;2.58;;;;;;;-3.25;100.00;98593.91;2270062;78;21024;-84
2022/01/21 04:26:12;;;;;;;4.65;2.87;;;;;;;-3.24;100.00;98595.08;2257308;78;21006;-84
2022/01/21 04:29:13;;;;;;;5.03;3.10;;;;;;;-3.26;100.00;98593.55;2232569;80;21566;-83
2022/01/21 04:32:15;;;;;;;4.78;2.62;;;;;;;-3.28;100.00;98600.51;2235771;78;20991;-83
2022/01/21 04:35:16;;;;;;;5.50;2.92;;;;;;;-3.29;100.00;98577.06;2252467;78;21056;-84
2022/01/21 04:38:20;;;;;;;5.62;2.65;;;;;;;-3.28;100.00;98582.58;2269670;78;20984;-83
2022/01/21 04:47:11;;;;;;;4.17;2.72;;;;;;;-3.26;100.00;98588.42;2269742;78;21061;-84
2022/01/21 04:47:41;;;;;;;4.08;2.58;;;;;;;-3.28;100.00;98585.14;2255112;78;21444;-85
2022/01/21 04:50:53;;;;;;;4.70;2.33;;;;;;;-3.25;100.00;98593.44;2232408;80;21007;-84
2022/01/21 04:53:45;;;;;;;5.28;2.55;;;;;;;-3.22;100.00;98597.55;2229470;80;20988;-84
2022/01/21 04:56:46;;;;;;;4.28;2.17;;;;;;;-3.22;100.00;98596.27;2230414;80;21020;-84
2022/01/21 04:59:46;;;;;;;6.28;2.70;;;;;;;-3.22;100.00;98587.30;2231759;78;21027;-84
2022/01/21 05:02:47;;;;;;;3.25;2.17;;;;;;;-3.23;100.00;98598.46;2232430;79;20924;-83
2022/01/21 05:05:48;;;;;;;2.85;2.12;;;;;;;-3.22;100.00;98606.50;2231334;80;21595;-84
2022/01/21 05:08:54;;;;;;;3.35;2.50;;;;;;;-3.22;100.00;98607.33;2231597;80;21012;-84
2022/01/21 05:11:55;;;;;;;2.70;2.17;;;;;;;-3.22;100.00;98598.36;2231503;80;21057;-83
2022/01/21 05:17:58;;;;;;;4.42;1.98;;;;;;;-3.15;100.00;98609.05;2251100;78;20980;-84
2022/01/21 05:20:59;;;;;;;2.92;2.10;;;;;;;-3.13;100.00;98612.34;2233417;78;20949;-84
2022/01/21 05:24:00;;;;;;;4.42;2.27;;;;;;;-3.08;100.00;98617.19;2230508;80;21547;-84
2022/01/21 05:27:01;;;;;;;2.60;2.35;;;;;;;-3.09;100.00;98607.86;2229306;80;20996;-85
2022/01/21 05:30:02;;;;;;;4.47;2.17;;;;;;;-3.05;100.00;98608.02;2229390;80;21029;-84
2022/01/21 05:33:03;;;;;;;7.15;2.50;;;;;;;-3.04;100.00;98613.50;2229255;80;21511;-84
2022/01/21 05:36:03;;;;;;;2.92;2.35;;;;;;;-3.05;100.00;98606.27;2229104;80;20988;-84
2022/01/21 05:39:04;;;;;;;5.55;2.10;;;;;;;-3.05;100.00;98620.36;2229311;80;21472;-83
2022/01/21 05:42:06;;;;;;;3.33;2.42;;;;;;;-3.09;100.00;98613.80;2229160;80;21037;-83
2022/01/21 05:48:08;;;;;;;5.33;3.10;;;;;;;-3.11;100.00;98616.08;2229548;80;20980;-83
2022/01/21 05:51:09;;;;;;;2.45;2.25;;;;;;;-3.12;100.00;98617.81;2264828;78;20973;-83
2022/01/21 05:54:09;;;;;;;5.78;2.35;;;;;;;-3.15;100.00;98621.86;2252611;78;20905;-84
2022/01/21 05:57:13;;;;;;;5.95;2.90;;;;;;;-3.15;100.00;98624.42;2231346;80;21089;-84
2022/01/21 06:00:13;;;;;;;4.75;2.72;;;;;;;-3.13;100.00;98616.64;2231567;80;21151;-83
2022/01/21 06:03:14;;;;;;;5.92;2.22;;;;;;;-3.12;100.00;98620.38;2231351;80;21504;-84
2022/01/21 06:06:15;;;;;;;5.80;2.45;;;;;;;-3.10;100.00;98629.27;2231262;79;21036;-83
2022/01/21 06:09:16;;;;;;;6.30;3.20;;;;;;;-3.09;100.00;98633.02;2231575;80;20996;-84
2022/01/21 06:12:16;;;;;;;9.03;4.62;;;;;;;-3.10;100.00;98628.81;2231416;80;21039;-84
2022/01/21 06:15:17;;;;;;;8.68;2.70;;;;;;;-3.10;100.00;98634.39;2265880;78;20930;-83
2022/01/21 06:18:18;;;;;;;4.53;3.20;;;;;;;-3.16;100.00;98631.75;2234897;78;20971;-84
2022/01/21 06:21:19;;;;;;;6.10;3.20;;;;;;;-3.18;100.00;98638.71;2233130;80;21487;-84
2022/01/21 06:24:19;;;;;;;5.92;3.92;;;;;;;-3.13;100.00;98640.97;2232478;80;20990;-83
2022/01/21 06:27:26;;;;;;;3.17;2.62;;;;;;;-3.13;100.00;98646.09;2230876;80;21539;-84
2022/01/21 06:30:23;;;;;;;5.03;3.30;;;;;;;-3.13;100.00;98644.81;2228667;80;20989;-84
2022/01/21 06:33:24;;;;;;;5.37;3.27;;;;;;;-3.12;100.00;98656.23;2229115;79;21001;-84
2022/01/21 06:36:25;;;;;;;6.62;3.05;;;;;;;-3.10;100.00;98660.02;2229421;80;21087;-84
2022/01/21 06:39:25;;;;;;;7.53;3.62;;;;;;;-3.07;100.00;98661.91;2230647;78;21016;-85
2022/01/21 06:42:28;;;;;;;5.58;3.02;;;;;;;-3.05;100.00;98652.84;2236426;78;21083;-82
2022/01/21 06:45:29;;;;;;;6.03;3.67;;;;;;;-3.05;100.00;98663.91;2272087;78;21025;-84
2022/01/21 06:48:29;;;;;;;6.33;4.22;;;;;;;-3.01;100.00;98647.91;2271856;78;20946;-83
2022/01/21 06:51:30;;;;;;;7.17;3.37;;;;;;;-2.99;100.00;98669.95;2272469;78;21007;-83
2022/01/21 06:54:31;;;;;;;7.37;4.12;;;;;;;-2.98;100.00;98663.91;2245861;78;21008;-82
2022/01/21 06:57:37;;;;;;;7.47;3.33;;;;;;;-2.97;100.00;98679.63;2256163;78;21088;-84
2022/01/21 07:00:35;;;;;;;7.08;3.98;;;;;;;-2.95;100.00;98679.53;2271117;78;21072;-81
2022/01/21 07:03:35;;;;;;;4.78;2.90;;;;;;;-2.89;100.00;98667.17;2248664;78;21475;-83
2022/01/21 07:06:36;;;;;;;6.85;4.05;;;;;;;-2.84;100.00;98675.02;2223876;80;21057;-81
2022/01/21 07:09:37;;;;;;;5.33;2.85;;;;;;;-2.81;100.00;98683.35;2224508;80;21030;-81
2022/01/21 07:12:38;;;;;;;12.25;3.85;;;;;;;-2.75;100.00;98677.81;2225034;80;21474;-81
2022/01/21 07:15:39;;;;;;;5.45;3.00;;;;;;;-2.71;100.00;98692.10;2224891;80;21136;-81
2022/01/21 07:18:39;;;;;;;4.85;3.20;;;;;;;-2.68;100.00;98684.20;2226616;78;21000;-82
2022/01/21 07:21:40;;;;;;;7.80;3.20;;;;;;;-2.65;100.00;98682.75;2232811;80;21006;-81
2022/01/21 07:24:41;;;;;;;11.97;5.80;;;;;;;-2.61;100.00;98688.50;2232593;80;20971;-81
2022/01/21 07:27:42;;;;;;;11.10;5.25;;;;;;;-2.57;100.00;98692.03;2232587;80;20996;-82
2022/01/21 07:30:43;;;;;;;7.60;3.80;;;;;;;-2.52;100.00;98694.32;2232434;80;21566;-81
2022/01/21 07:33:44;;;;;;;8.03;5.00;;;;;;;-2.50;100.00;98689.09;2232713;80;20936;-82
2022/01/21 07:36:47;;;;;;;8.75;4.55;;;;;;;-2.46;100.00;98695.22;2232835;78;20964;-81
2022/01/21 07:39:48;;;;;;;15.68;7.55;;;;;;;-2.45;100.00;98699.42;2232713;80;21562;-81
2022/01/21 07:42:49;;;;;;;10.78;5.12;;;;;;;-2.41;100.00;98711.58;2232287;80;21022;-81
2022/01/21 07:45:50;;;;;;;7.97;5.10;;;;;;;-2.38;100.00;98695.98;2232376;80;21408;-81
2022/01/21 07:48:50;;;;;;;7.08;4.97;;;;;;;-2.32;100.00;98701.55;2230085;80;21043;-80
2022/01/21 07:51:51;;;;;;;12.82;5.83;;;;;;;-2.21;100.00;98701.31;2230161;80;21032;-80
2022/01/21 07:54:52;;;;;;;11.50;5.28;;;;;;;-2.14;100.00;98704.67;2232778;78;21008;-81
2022/01/21 07:57:53;;;;;;;11.70;4.78;;;;;;;-2.11;100.00;98712.16;2232445;78;21031;-81
2022/01/21 08:00:54;;;;;;;5.83;3.75;;;;;;;-2.07;100.00;98688.42;2232175;80;20936;-85
2022/01/21 08:03:54;;;;;;;14.13;7.47;;;;;;;-2.03;100.00;98698.83;2232657;80;21067;-80
2022/01/21 08:06:55;;;;;;;15.68;8.78;;;;;;;-1.97;100.00;98708.70;2230940;79;20957;-83
2022/01/21 08:09:56;;;;;;;21.33;8.78;;;;;;;-1.92;100.00;98702.82;2229400;80;21056;-85
2022/01/21 08:12:57;;;;;;;12.15;6.00;;;;;;;-1.80;100.00;98694.30;2229117;80;21476;-82
2022/01/21 08:15:58;;;;;;;10.13;5.22;;;;;;;-1.66;100.00;98691.25;2229342;80;21056;-82
2022/01/21 08:18:59;;;;;;;7.58;4.28;;;;;;;-1.53;100.00;98698.50;2259103;78;20945;-82
2022/01/21 08:22:00;;;;;;;7.17;4.33;;;;;;;-1.52;100.00;98683.45;2246907;78;20926;-79
2022/01/21 08:25:01;;;;;;;12.47;5.50;;;;;;;-1.53;100.00;98694.66;2231476;80;21600;-78
2022/01/21 08:28:01;;;;;;;16.10;7.78;;;;;;;-1.56;100.00;98708.96;2231341;80;20921;-78
2022/01/21 08:31:02;;;;;;;10.93;6.03;;;;;;;-1.58;100.00;98703.94;2231712;80;21503;-79
2022/01/21 08:34:03;;;;;;;9.98;5.15;;;;;;;-1.57;100.00;98699.62;2231446;80;20965;-82
2022/01/21 08:37:04;;;;;;;18.77;6.90;;;;;;;-1.56;100.00;98712.81;2228133;80;21004;-83
2022/01/21 08:40:05;;;;;;;8.13;5.35;;;;;;;-1.50;100.00;98704.24;2231445;80;20945;-84
2022/01/21 08:43:06;;;;;;;10.80;6.33;;;;;;;-1.34;100.00;98682.66;2230619;80;20930;-83
2022/01/21 08:46:07;;;;;;;11.90;5.85;;;;;;;-1.28;100.00;98704.05;2239126;78;20969;-82
2022/01/21 08:49:08;;;;;;;10.40;5.58;;;;;;;-1.24;100.00;98699.91;2230752;78;21041;-81
2022/01/21 08:52:18;;;;;;;6.37;4.60;;;;;;;-1.20;100.00;98728.30;2223123;78;21038;-85
2022/01/21 08:55:12;;;;;;;15.28;5.35;;;;;;;-1.21;100.00;98727.94;2228332;78;21052;-83
2022/01/21 08:58:13;;;;;;;12.40;5.28;;;;;;;-1.19;100.00;98744.10;2224915;78;21504;-82
2022/01/21 09:01:14;;;;;;;10.13;5.33;;;;;;;-1.16;100.00;98744.34;2223696;79;21144;-83
2022/01/21 09:04:15;;;;;;;17.67;5.47;;;;;;;-1.14;100.00;98734.77;2258879;78;21012;-81
2022/01/21 09:07:15;;;;;;;7.87;4.20;;;;;;;-1.09;100.00;98724.20;2283679;78;20959;-82
2022/01/21 09:10:16;;;;;;;9.60;6.42;;;;;;;-1.06;100.00;98744.53;2285243;78;21015;-82
2022/01/21 09:13:17;;;;;;;13.83;6.20;;;;;;;-1.06;100.00;98747.10;2284859;78;21515;-84
2022/01/21 09:16:19;;;;;;;12.03;5.40;;;;;;;-1.04;100.00;98745.24;2249890;78;20980;-80
2022/01/21 09:19:20;;;;;;;15.83;6.05;;;;;;;-1.05;100.00;98734.61;2261844;79;21026;-82
2022/01/21 09:22:20;;;;;;;11.20;5.75;;;;;;;-1.05;100.00;98761.59;2261832;79;21037;-83
2022/01/21 09:25:21;;;;;;;11.08;5.75;;;;;;;-1.06;100.00;98732.97;2260699;78;20978;-84
2022/01/21 09:28:23;;;;;;;10.05;5.50;;;;;;;-1.08;100.00;98756.21;2294366;77;20958;-82
2022/01/21 09:31:25;;;;;;;9.15;5.95;;;;;;;-1.07;100.00;98759.13;2282249;78;21056;-82
2022/01/21 09:34:26;;;;;;;9.18;5.08;;;;;;;-1.05;100.00;98761.13;2225583;79;20990;-83
2022/01/21 09:37:27;;;;;;;14.15;6.20;;;;;;;-1.03;100.00;98749.45;2239411;78;21083;-81
2022/01/21 09:40:28;;;;;;;8.85;5.37;;;;;;;-1.06;100.00;98755.63;2266463;77;20951;-82
2022/01/21 09:43:28;;;;;;;9.83;5.17;;;;;;;-1.08;100.00;98763.92;2262377;77;20970;-84
2022/01/21 09:46:36;;;;;;;10.72;5.92;;;;;;;-1.07;100.00;98748.85;2259840;79;20955;-81
2022/01/21 09:49:41;;;;;;;9.83;6.10;;;;;;;-1.04;100.00;98737.07;2260120;79;21013;-81
2022/01/21 09:52:41;;;;;;;10.03;5.67;;;;;;;-0.97;100.00;98751.15;2259816;79;21050;-85
2022/01/21 09:55:41;;;;;;;13.78;6.42;;;;;;;-0.90;100.00;98741.27;2268180;77;20991;-83
2022/01/21 09:58:42;;;;;;;9.83;5.30;;;;;;;-0.84;100.00;98734.39;2262160;79;21014;-84
2022/01/21 10:01:43;;;;;;;10.90;6.25;;;;;;;-0.86;100.00;98747.36;2261812;79;21026;-81
2022/01/21 10:04:47;;;;;;;18.17;6.17;;;;;;;-0.89;100.00;98735.20;2262128;79;21605;-81
2022/01/21 10:07:47;;;;;;;16.73;6.85;;;;;;;-0.93;100.00;98726.86;2268205;78;21060;-82
2022/01/21 10:10:48;;;;;;;13.80;5.37;;;;;;;-0.88;100.00;98741.98;2268687;78;21516;-81
2022/01/21 10:13:49;;;;;;;10.30;5.62;;;;;;;-0.94;100.00;98720.55;2268782;77;21518;-83
2022/01/21 10:16:50;;;;;;;8.73;5.62;;;;;;;-0.89;100.00;98706.45;2269653;78;20978;-83
2022/01/21 10:19:51;;;;;;;8.45;5.22;;;;;;;-0.85;100.00;98725.05;2268936;78;21036;-81
2022/01/21 10:22:52;;;;;;;10.88;6.00;;;;;;;-0.79;100.00;98713.05;2278895;77;21021;-82
2022/01/21 10:25:53;;;;;;;13.53;7.37;;;;;;;-0.76;100.00;98721.83;2303058;77;21049;-80
2022/01/21 10:28:54;;;;;;;12.88;7.03;;;;;;;-0.70;100.00;98719.30;2303813;77;21436;-82
2022/01/21 10:31:55;;;;;;;11.18;6.22;;;;;;;-0.61;100.00;98716.08;2304091;77;20935;-83
2022/01/21 10:34:56;;;;;;;12.70;6.10;;;;;;;-0.47;100.00;98709.93;2304254;77;21016;-83
2022/01/21 10:37:57;;;;;;;13.93;6.37;;;;;;;-0.45;100.00;98715.34;2304098;77;20951;-83
2022/01/21 10:40:58;;;;;;;8.75;5.92;;;;;;;-0.38;100.00;98704.13;2304053;77;21050;-82
2022/01/21 10:43:59;;;;;;;9.10;6.58;;;;;;;-0.33;100.00;98699.02;2301140;77;20953;-83
2022/01/21 10:47:01;;;;;;;13.78;6.55;;;;;;;-0.29;100.00;98715.86;2280284;77;21006;-82
2022/01/21 10:50:02;;;;;;;13.22;6.40;;;;;;;-0.26;100.00;98704.55;2304064;77;21061;-83
2022/01/21 10:53:03;;;;;;;19.30;10.35;;;;;;;-0.17;100.00;98710.31;2304155;77;20915;-83
2022/01/21 10:56:04;;;;;;;13.25;6.53;;;;;;;-0.10;100.00;98705.51;2304267;77;21061;-82
2022/01/21 10:59:05;;;;;;;16.00;7.25;;;;;;;-0.02;100.00;98709.62;2304289;77;20993;-81
2022/01/21 11:02:06;;;;;;;19.42;8.35;;;;;;;0.05;100.00;98708.72;2304237;77;20973;-82
2022/01/21 11:05:09;;;;;;;12.73;6.87;;;;;;;0.09;100.00;98703.25;2304058;77;21050;-81
2022/01/21 11:08:11;;;;;;;11.88;6.30;;;;;;;0.12;100.00;98696.57;2306578;77;21100;-81
2022/01/21 11:11:12;;;;;;;15.58;7.20;;;;;;;0.14;100.00;98688.26;2306677;77;21030;-86
2022/01/21 11:14:13;;;;;;;9.33;6.78;;;;;;;0.12;100.00;98708.62;2273778;77;21498;-82
2022/01/21 11:17:18;;;;;;;17.07;6.97;;;;;;;0.07;100.00;98701.70;2282154;77;20946;-81
2022/01/21 11:20:18;;;;;;;18.30;7.35;;;;;;;-0.01;100.00;98702.25;2305710;77;21026;-84
2022/01/21 11:23:21;;;;;;;18.75;7.72;;;;;;;-0.04;100.00;98709.75;2306304;77;21525;-82
2022/01/21 11:26:22;;;;;;;14.28;6.90;;;;;;;0.01;100.00;98700.41;2306665;77;20927;-81
2022/01/21 11:29:22;;;;;;;12.28;5.78;;;;;;;0.08;100.00;98707.20;2306651;77;21028;-83
2022/01/21 11:32:23;;;;;;;13.90;5.30;;;;;;;0.01;100.00;98714.57;2306568;77;20979;-81
2022/01/21 11:35:24;;;;;;;12.70;4.67;;;;;;;-0.06;100.00;98709.05;2306679;77;20985;-81
2022/01/21 11:38:25;;;;;;;12.30;5.95;;;;;;;-0.13;100.00;98710.42;2271329;77;21414;-81
2022/01/21 11:41:28;;;;;;;9.93;5.33;;;;;;;-0.23;100.00;98699.63;2265377;79;21036;-83
2022/01/21 11:44:30;;;;;;;11.97;6.30;;;;;;;-0.32;100.00;98697.26;2265685;77;20981;-84
2022/01/21 11:47:49;;;;;;;10.38;4.17;;;;;;;-0.32;100.00;98696.79;2262243;79;21542;-87
2022/01/21 11:50:33;;;;;;;9.75;4.62;;;;;;;-0.32;100.00;98692.93;2262052;79;21038;-80
2022/01/21 11:53:34;;;;;;;8.28;4.62;;;;;;;-0.36;100.00;98702.28;2262077;79;21053;-81
2022/01/21 11:56:35;;;;;;;10.25;5.37;;;;;;;-0.38;100.00;98698.51;2262110;79;21092;-81
2022/01/21 11:59:40;;;;;;;12.40;5.42;;;;;;;-0.47;100.00;98697.06;2262064;79;21058;-81
2022/01/21 12:02:39;;;;;;;14.20;6.78;;;;;;;-0.49;100.00;98703.61;2274373;77;21014;-85
2022/01/21 12:05:40;;;;;;;17.10;7.72;;;;;;;-0.45;100.00;98701.66;2306508;77;21085;-81
2022/01/21 12:08:41;;;;;;;11.08;5.85;;;;;;;-0.40;100.00;98687.98;2306261;77;21021;-81
2022/01/21 12:11:42;;;;;;;14.85;7.50;;;;;;;-0.48;100.00;98701.86;2306693;77;21053;-82
2022/01/21 12:14:49;;;;;;;22.45;7.45;;;;;;;-0.51;100.00;98695.66;2267372;77;20935;-87
2022/01/21 12:17:51;;;;;;;27.80;10.70;;;;;;;-0.61;100.00;98690.36;2263768;79;20983;-81
2022/01/21 12:20:48;;;;;;;23.87;9.18;;;;;;;-0.58;100.00;98700.41;2263352;79;21040;-81
2022/01/21 12:23:49;;;;;;;13.20;6.10;;;;;;;-0.53;100.00;98693.20;2264146;79;20919;-81
2022/01/21 12:26:50;;;;;;;14.33;6.75;;;;;;;-0.57;100.00;98699.02;2264136;79;21038;-80
2022/01/21 12:29:51;;;;;;;17.77;8.50;;;;;;;-0.64;100.00;98691.41;2264245;79;20998;-80
2022/01/21 12:32:52;;;;;;;20.80;10.63;;;;;;;-0.63;100.00;98694.33;2264153;78;21102;-82
2022/01/21 12:35:56;;;;;;;18.37;9.03;;;;;;;-0.62;100.00;98691.29;2264228;79;20998;-86
2022/01/21 12:42:00;;;;;;;16.87;8.00;;;;;;;-0.62;100.00;98688.72;2297885;77;20978;-83
2022/01/21 12:45:02;;;;;;;11.00;6.25;;;;;;;-0.58;100.00;98686.27;2306586;77;21018;-84
2022/01/21 12:48:03;;;;;;;11.55;6.83;;;;;;;-0.54;100.00;98684.31;2306540;77;21033;-83
2022/01/21 12:51:07;;;;;;;13.45;7.17;;;;;;;-0.52;100.00;98685.02;2306473;77;21426;-81
2022/01/21 12:57:26;;;;;;;12.88;7.80;;;;;;;-0.60;100.00;98689.42;2296974;77;21019;-83
2022/01/21 13:00:27;;;;;;;13.95;8.25;;;;;;;-0.82;100.00;98688.86;2306625;77;21537;-86
2022/01/21 13:03:28;;;;;;;11.65;8.55;;;;;;;-0.92;100.00;98684.80;2306455;77;20986;-84
2022/01/21 13:06:28;;;;;;;18.92;9.28;;;;;;;-0.98;100.00;98683.14;2306324;77;21026;-82
2022/01/21 13:09:29;;;;;;;22.67;10.03;;;;;;;-0.93;100.00;98690.87;2285298;77;20991;-85
2022/01/21 13:12:35;;;;;;;18.35;9.73;;;;;;;-0.90;100.00;98691.96;2264167;79;20963;-83
2022/01/21 13:15:33;;;;;;;15.15;8.38;;;;;;;-0.94;100.00;98692.27;2263988;79;21083;-84
2022/01/21 13:18:36;;;;;;;18.57;8.70;;;;;;;-1.07;100.00;98698.73;2264933;77;20951;-80
2022/01/21 13:21:36;;;;;;;22.80;10.32;;;;;;;-1.07;100.00;98694.06;2263960;78;21140;-80
2022/01/21 13:24:38;;;;;;;21.12;9.40;;;;;;;-1.08;100.00;98697.09;2264106;79;21498;-84
2022/01/21 13:27:39;;;;;;;19.42;9.13;;;;;;;-1.05;100.00;98706.34;2264258;79;20998;-83
2022/01/21 13:30:40;;;;;;;23.50;8.40;;;;;;;-1.07;100.00;98692.78;2264258;79;21031;-81
2022/01/21 13:33:41;;;;;;;16.62;8.28;;;;;;;-1.15;100.00;98706.97;2264189;78;20985;-81
2022/01/21 13:36:42;;;;;;;18.48;8.18;;;;;;;-1.28;100.00;98724.61;2264726;79;21009;-82
2022/01/21 13:39:44;;;;;;;16.75;9.08;;;;;;;-1.38;100.00;98713.32;2264222;77;21024;-83
2022/01/21 13:42:44;;;;;;;15.32;9.03;;;;;;;-1.45;100.00;98712.94;2263264;79;21532;-81
2022/01/21 13:45:45;;;;;;;20.27;9.38;;;;;;;-1.52;100.00;98725.36;2264031;77;20962;-85
2022/01/21 13:48:46;;;;;;;19.87;9.55;;;;;;;-1.57;100.00;98719.70;2263984;77;21069;-83
2022/01/21 13:51:55;;;;;;;;;;;;;;;-1.66;100.00;98716.47;2224971;79;21093;-83
2022/01/21 13:54:56;;;;;;;21.62;9.83;;;;;;;-1.75;100.00;98719.18;2254266;77;20436;-82
2022/01/21 13:57:56;;;;;;;19.48;9.20;;;;;;;-1.75;100.00;98718.36;2229381;78;20987;-79
2022/01/21 14:00:57;;;;;;;25.95;12.82;;;;;;;-1.76;100.00;98721.85;2264515;77;20996;-82
2022/01/21 14:03:59;;;;;;;22.67;11.12;;;;;;;-1.75;100.00;98726.06;2229107;79;21142;-86
2022/01/21 14:07:00;;;;;;;21.30;9.45;;;;;;;-1.78;100.00;98726.28;2271108;77;20987;-83
2022/01/21 14:10:02;;;;;;;23.67;10.43;;;;;;;-1.80;100.00;98731.98;2284319;77;21048;-84
2022/01/21 14:13:03;;;;;;;23.20;9.88;;;;;;;-1.83;100.00;98731.73;2260019;78;21084;-84
2022/01/21 14:16:06;;;;;;;17.82;8.58;;;;;;;-1.86;100.00;98734.94;2268954;77;20965;-83
2022/01/21 14:19:12;;;;;;;27.27;11.33;;;;;;;-1.89;100.00;98740.28;2269334;78;21040;-85
2022/01/21 14:22:19;;;;;;;19.27;10.63;;;;;;;-1.89;100.00;98745.42;2260278;78;21048;-84
2022/01/21 14:25:17;;;;;;;22.87;10.53;;;;;;;-1.86;100.00;98734.94;2271082;77;21054;-82
2022/01/21 14:28:17;;;;;;;19.65;9.08;;;;;;;-1.86;100.00;98741.36;2271342;77;21446;-85
2022/01/21 14:31:18;;;;;;;16.60;7.80;;;;;;;-1.82;100.00;98743.64;2304779;77;21007;-88
2022/01/21 14:34:19;;;;;;;14.98;6.53;;;;;;;-1.83;100.00;98724.46;2283817;77;20962;-79
2022/01/21 14:37:20;;;;;;;13.10;6.85;;;;;;;-1.86;100.00;98731.09;2261422;77;21026;-84
2022/01/21 14:40:24;;;;;;;16.37;6.40;;;;;;;-1.92;100.00;98728.48;2265570;78;20938;-81
2022/01/21 14:43:27;;;;;;;14.13;6.10;;;;;;;-1.96;100.00;98734.72;2277181;77;20958;-82
2022/01/21 14:46:31;;;;;;;15.98;7.05;;;;;;;-2.00;100.00;98733.29;2267475;77;21044;-82
2022/01/21 14:49:33;;;;;;;12.30;6.53;;;;;;;-2.04;100.00;98737.78;2241428;78;21001;-82
2022/01/21 14:52:37;;;;;;;18.25;8.00;;;;;;;-2.07;100.00;98732.86;2267538;78;21025;-81